sensor_id;sensor_type;location;lat;lon;timestamp;P1;durP1;ratioP1;P2;durP2;ratioP2
21213;SDS011;10764;50.850;2.904;2022-09-27T00:02:11;1278.83;;;999.90;;
21213;SDS011;10764;50.850;2.904;2022-09-27T00:04:39;1284.65;;;999.90;;
21213;SDS011;10764;50.850;2.904;2022-09-27T00:07:06;1280.05;;;999.90;;
21213;SDS011;10764;50.850;2.904;2022-09-27T00:09:38;1281.65;;;999.90;;
21213;SDS011;10764;50.850;2.904;2022-09-27T00:12:10;1281.32;;;999.90;;
21213;SDS011;10764;50.850;2.904;2022-09-27T00:14:37;1279.63;;;999.90;;
21213;SDS011;10764;50.850;2.904;2022-09-27T00:17:05;1276.40;;;999.90;;
21213;SDS011;10764;50.850;2.904;2022-09-27T00:19:32;1276.75;;;999.90;;
21213;SDS011;10764;50.850;2.904;2022-09-27T00:22:00;1281.20;;;999.90;;
21213;SDS011;10764;50.850;2.904;2022-09-27T00:24:28;1279.35;;;999.90;;
21213;SDS011;10764;50.850;2.904;2022-09-27T00:26:55;1277.22;;;999.90;;
21213;SDS011;10764;50.850;2.904;2022-09-27T00:29:22;1275.47;;;999.90;;
21213;SDS011;10764;50.850;2.904;2022-09-27T00:31:49;1278.93;;;999.90;;
21213;SDS011;10764;50.850;2.904;2022-09-27T00:34:19;1276.68;;;999.90;;
21213;SDS011;10764;50.850;2.904;2022-09-27T00:36:51;1281.78;;;999.90;;
21213;SDS011;10764;50.850;2.904;2022-09-27T00:39:19;1275.47;;;999.90;;
21213;SDS011;10764;50.850;2.904;2022-09-27T00:41:47;1274.45;;;999.90;;
21213;SDS011;10764;50.850;2.904;2022-09-27T00:47:38;1275.13;;;999.90;;
21213;SDS011;10764;50.850;2.904;2022-09-27T00:49:59;1281.63;;;999.90;;
21213;SDS011;10764;50.850;2.904;2022-09-27T00:55:18;1274.28;;;999.90;;
21213;SDS011;10764;50.850;2.904;2022-09-27T00:58:06;1273.53;;;999.90;;
21213;SDS011;10764;50.850;2.904;2022-09-27T01:00:35;1277.63;;;999.90;;
21213;SDS011;10764;50.850;2.904;2022-09-27T01:03:06;1275.20;;;999.90;;
21213;SDS011;10764;50.850;2.904;2022-09-27T01:05:38;1275.00;;;999.90;;
21213;SDS011;10764;50.850;2.904;2022-09-27T01:08:06;1278.45;;;999.90;;
21213;SDS011;10764;50.850;2.904;2022-09-27T01:10:37;1277.65;;;999.90;;
21213;SDS011;10764;50.850;2.904;2022-09-27T01:13:17;1281.13;;;999.90;;
21213;SDS011;10764;50.850;2.904;2022-09-27T01:16:06;1277.70;;;999.90;;
21213;SDS011;10764;50.850;2.904;2022-09-27T01:21:28;1276.00;;;999.90;;
21213;SDS011;10764;50.850;2.904;2022-09-27T01:24:21;1283.60;;;999.90;;
21213;SDS011;10764;50.850;2.904;2022-09-27T01:38:44;1275.00;;;999.90;;
21213;SDS011;10764;50.850;2.904;2022-09-27T01:41:26;1279.07;;;999.90;;
21213;SDS011;10764;50.850;2.904;2022-09-27T01:44:30;1278.40;;;999.90;;
21213;SDS011;10764;50.850;2.904;2022-09-27T01:47:18;1280.85;;;999.90;;
21213;SDS011;10764;50.850;2.904;2022-09-27T01:50:04;1280.97;;;999.90;;
21213;SDS011;10764;50.850;2.904;2022-09-27T01:52:48;1283.97;;;999.90;;
21213;SDS011;10764;50.850;2.904;2022-09-27T01:55:23;1278.07;;;999.90;;
21213;SDS011;10764;50.850;2.904;2022-09-27T01:58:23;1281.90;;;999.90;;
21213;SDS011;10764;50.850;2.904;2022-09-27T02:00:57;1279.93;;;999.90;;
21213;SDS011;10764;50.850;2.904;2022-09-27T02:03:31;1278.03;;;999.90;;
21213;SDS011;10764;50.850;2.904;2022-09-27T02:06:40;1278.80;;;999.90;;
21213;SDS011;10764;50.850;2.904;2022-09-27T02:09:23;1279.70;;;999.90;;
21213;SDS011;10764;50.850;2.904;2022-09-27T02:12:16;1279.10;;;999.90;;
21213;SDS011;10764;50.850;2.904;2022-09-27T02:14:56;1275.32;;;999.90;;
21213;SDS011;10764;50.850;2.904;2022-09-27T02:25:42;1280.50;;;999.90;;
21213;SDS011;10764;50.850;2.904;2022-09-27T02:28:38;1282.80;;;999.90;;
21213;SDS011;10764;50.850;2.904;2022-09-27T02:31:21;1277.40;;;999.90;;
21213;SDS011;10764;50.850;2.904;2022-09-27T02:33:49;1277.15;;;999.90;;
21213;SDS011;10764;50.850;2.904;2022-09-27T02:36:21;1277.20;;;999.90;;
21213;SDS011;10764;50.850;2.904;2022-09-27T02:38:48;1276.15;;;999.90;;
21213;SDS011;10764;50.850;2.904;2022-09-27T02:41:19;1279.82;;;999.90;;
21213;SDS011;10764;50.850;2.904;2022-09-27T02:43:49;1275.93;;;999.90;;
21213;SDS011;10764;50.850;2.904;2022-09-27T02:46:38;1278.45;;;999.90;;
21213;SDS011;10764;50.850;2.904;2022-09-27T03:05:28;1274.85;;;999.90;;
21213;SDS011;10764;50.850;2.904;2022-09-27T03:08:03;1275.55;;;999.90;;
21213;SDS011;10764;50.850;2.904;2022-09-27T03:10:31;1277.22;;;999.90;;
21213;SDS011;10764;50.850;2.904;2022-09-27T03:13:01;1276.50;;;999.90;;
21213;SDS011;10764;50.850;2.904;2022-09-27T03:15:31;1273.65;;;999.90;;
21213;SDS011;10764;50.850;2.904;2022-09-27T03:18:01;1276.05;;;999.90;;
21213;SDS011;10764;50.850;2.904;2022-09-27T03:20:46;1275.50;;;999.90;;
21213;SDS011;10764;50.850;2.904;2022-09-27T03:23:18;1275.35;;;999.90;;
21213;SDS011;10764;50.850;2.904;2022-09-27T03:25:46;1271.82;;;999.90;;
21213;SDS011;10764;50.850;2.904;2022-09-27T03:28:17;1277.65;;;999.90;;
21213;SDS011;10764;50.850;2.904;2022-09-27T03:30:47;1280.80;;;999.90;;
21213;SDS011;10764;50.850;2.904;2022-09-27T03:33:36;1276.07;;;999.90;;
21213;SDS011;10764;50.850;2.904;2022-09-27T03:36:08;1273.18;;;999.90;;
21213;SDS011;10764;50.850;2.904;2022-09-27T03:38:38;1277.68;;;999.90;;
21213;SDS011;10764;50.850;2.904;2022-09-27T03:41:08;1268.75;;;999.90;;
21213;SDS011;10764;50.850;2.904;2022-09-27T03:43:35;1271.07;;;999.90;;
21213;SDS011;10764;50.850;2.904;2022-09-27T03:46:02;1272.13;;;999.90;;
21213;SDS011;10764;50.850;2.904;2022-09-27T03:48:30;1269.93;;;999.90;;
21213;SDS011;10764;50.850;2.904;2022-09-27T03:50:57;1271.00;;;999.90;;
21213;SDS011;10764;50.850;2.904;2022-09-27T03:53:23;1273.25;;;999.90;;
21213;SDS011;10764;50.850;2.904;2022-09-27T03:55:50;1272.50;;;999.90;;
21213;SDS011;10764;50.850;2.904;2022-09-27T03:58:17;1270.40;;;999.90;;
21213;SDS011;10764;50.850;2.904;2022-09-27T04:00:48;1280.70;;;999.90;;
21213;SDS011;10764;50.850;2.904;2022-09-27T04:03:15;1274.65;;;999.90;;
21213;SDS011;10764;50.850;2.904;2022-09-27T04:06:02;1284.20;;;999.90;;
21213;SDS011;10764;50.850;2.904;2022-09-27T04:08:36;1279.82;;;999.90;;
21213;SDS011;10764;50.850;2.904;2022-09-27T04:11:04;1274.23;;;999.90;;
21213;SDS011;10764;50.850;2.904;2022-09-27T04:13:31;1276.32;;;999.90;;
21213;SDS011;10764;50.850;2.904;2022-09-27T04:15:58;1269.83;;;999.90;;
21213;SDS011;10764;50.850;2.904;2022-09-27T04:18:43;1275.68;;;999.90;;
21213;SDS011;10764;50.850;2.904;2022-09-27T04:21:42;1283.28;;;999.90;;
21213;SDS011;10764;50.850;2.904;2022-09-27T04:24:11;1269.82;;;999.90;;
21213;SDS011;10764;50.850;2.904;2022-09-27T04:26:47;1268.10;;;999.90;;
21213;SDS011;10764;50.850;2.904;2022-09-27T04:29:24;1267.82;;;999.90;;
21213;SDS011;10764;50.850;2.904;2022-09-27T04:31:52;1274.28;;;999.90;;
21213;SDS011;10764;50.850;2.904;2022-09-27T04:34:19;1276.05;;;999.90;;
21213;SDS011;10764;50.850;2.904;2022-09-27T04:37:19;1271.45;;;999.90;;
21213;SDS011;10764;50.850;2.904;2022-09-27T04:39:48;1271.07;;;999.90;;
21213;SDS011;10764;50.850;2.904;2022-09-27T04:42:16;1276.45;;;999.90;;
21213;SDS011;10764;50.850;2.904;2022-09-27T04:47:13;1274.07;;;999.90;;
21213;SDS011;10764;50.850;2.904;2022-09-27T04:49:43;1275.80;;;999.90;;
21213;SDS011;10764;50.850;2.904;2022-09-27T04:52:10;1273.07;;;999.90;;
21213;SDS011;10764;50.850;2.904;2022-09-27T04:54:38;1277.38;;;999.90;;
21213;SDS011;10764;50.850;2.904;2022-09-27T04:57:25;1276.38;;;999.90;;
21213;SDS011;10764;50.850;2.904;2022-09-27T04:59:52;1269.20;;;999.90;;
21213;SDS011;10764;50.850;2.904;2022-09-27T05:02:23;1279.25;;;999.90;;
21213;SDS011;10764;50.850;2.904;2022-09-27T05:05:27;1282.07;;;999.90;;
21213;SDS011;10764;50.850;2.904;2022-09-27T05:07:56;1274.80;;;999.90;;
21213;SDS011;10764;50.850;2.904;2022-09-27T05:10:33;1278.05;;;999.90;;
21213;SDS011;10764;50.850;2.904;2022-09-27T05:13:00;1273.93;;;999.90;;
21213;SDS011;10764;50.850;2.904;2022-09-27T05:15:27;1271.47;;;999.90;;
21213;SDS011;10764;50.850;2.904;2022-09-27T05:18:29;1271.88;;;999.90;;
21213;SDS011;10764;50.850;2.904;2022-09-27T05:21:14;1268.05;;;999.90;;
21213;SDS011;10764;50.850;2.904;2022-09-27T05:23:44;1268.90;;;999.90;;
21213;SDS011;10764;50.850;2.904;2022-09-27T05:26:13;1266.50;;;999.90;;
21213;SDS011;10764;50.850;2.904;2022-09-27T05:28:40;1269.33;;;999.90;;
21213;SDS011;10764;50.850;2.904;2022-09-27T05:31:09;1266.68;;;999.90;;
21213;SDS011;10764;50.850;2.904;2022-09-27T05:33:39;1267.32;;;999.90;;
21213;SDS011;10764;50.850;2.904;2022-09-27T05:36:26;1276.22;;;999.90;;
21213;SDS011;10764;50.850;2.904;2022-09-27T05:38:53;1270.90;;;999.90;;
21213;SDS011;10764;50.850;2.904;2022-09-27T05:41:21;1275.45;;;999.90;;
21213;SDS011;10764;50.850;2.904;2022-09-27T05:43:48;1271.45;;;999.90;;
21213;SDS011;10764;50.850;2.904;2022-09-27T05:46:15;1269.95;;;999.90;;
21213;SDS011;10764;50.850;2.904;2022-09-27T05:48:42;1267.72;;;999.90;;
21213;SDS011;10764;50.850;2.904;2022-09-27T05:51:09;1271.97;;;999.90;;
21213;SDS011;10764;50.850;2.904;2022-09-27T05:53:38;1269.70;;;999.90;;
21213;SDS011;10764;50.850;2.904;2022-09-27T05:56:13;1269.85;;;999.90;;
21213;SDS011;10764;50.850;2.904;2022-09-27T05:58:58;1269.15;;;999.90;;
21213;SDS011;10764;50.850;2.904;2022-09-27T06:01:33;1278.15;;;999.90;;
21213;SDS011;10764;50.850;2.904;2022-09-27T06:04:23;1271.35;;;999.90;;
21213;SDS011;10764;50.850;2.904;2022-09-27T06:07:05;1276.05;;;999.90;;
21213;SDS011;10764;50.850;2.904;2022-09-27T06:09:32;1277.03;;;999.90;;
21213;SDS011;10764;50.850;2.904;2022-09-27T06:11:59;1277.68;;;999.90;;
21213;SDS011;10764;50.850;2.904;2022-09-27T06:14:26;1270.07;;;999.90;;
21213;SDS011;10764;50.850;2.904;2022-09-27T06:17:01;1271.05;;;999.90;;
21213;SDS011;10764;50.850;2.904;2022-09-27T06:19:31;1273.07;;;999.90;;
21213;SDS011;10764;50.850;2.904;2022-09-27T06:21:58;1271.65;;;999.90;;
21213;SDS011;10764;50.850;2.904;2022-09-27T06:24:34;1273.38;;;999.90;;
21213;SDS011;10764;50.850;2.904;2022-09-27T06:27:07;1274.43;;;999.90;;
21213;SDS011;10764;50.850;2.904;2022-09-27T06:29:44;1270.68;;;999.90;;
21213;SDS011;10764;50.850;2.904;2022-09-27T06:32:21;1270.90;;;999.90;;
21213;SDS011;10764;50.850;2.904;2022-09-27T06:34:55;1269.38;;;999.90;;
21213;SDS011;10764;50.850;2.904;2022-09-27T06:37:25;1273.05;;;999.90;;
21213;SDS011;10764;50.850;2.904;2022-09-27T06:39:52;1271.38;;;999.90;;
21213;SDS011;10764;50.850;2.904;2022-09-27T06:42:51;1273.38;;;999.90;;
21213;SDS011;10764;50.850;2.904;2022-09-27T06:45:41;1275.15;;;999.90;;
21213;SDS011;10764;50.850;2.904;2022-09-27T06:48:40;1287.55;;;999.90;;
21213;SDS011;10764;50.850;2.904;2022-09-27T06:51:16;1274.20;;;999.90;;
21213;SDS011;10764;50.850;2.904;2022-09-27T06:53:43;1270.38;;;999.90;;
21213;SDS011;10764;50.850;2.904;2022-09-27T06:56:10;1273.68;;;999.90;;
21213;SDS011;10764;50.850;2.904;2022-09-27T06:58:47;1275.78;;;999.90;;
21213;SDS011;10764;50.850;2.904;2022-09-27T07:01:42;1271.68;;;999.90;;
21213;SDS011;10764;50.850;2.904;2022-09-27T07:04:20;1273.22;;;999.90;;
21213;SDS011;10764;50.850;2.904;2022-09-27T07:07:10;1276.00;;;999.90;;
21213;SDS011;10764;50.850;2.904;2022-09-27T07:09:41;1269.88;;;999.90;;
21213;SDS011;10764;50.850;2.904;2022-09-27T07:12:09;1276.45;;;999.90;;
21213;SDS011;10764;50.850;2.904;2022-09-27T07:14:38;1271.10;;;999.90;;
21213;SDS011;10764;50.850;2.904;2022-09-27T07:17:09;1274.30;;;999.90;;
21213;SDS011;10764;50.850;2.904;2022-09-27T07:19:39;1272.20;;;999.90;;
21213;SDS011;10764;50.850;2.904;2022-09-27T07:22:07;1274.97;;;999.90;;
21213;SDS011;10764;50.850;2.904;2022-09-27T07:24:34;1272.07;;;999.90;;
21213;SDS011;10764;50.850;2.904;2022-09-27T07:27:02;1270.53;;;999.90;;
21213;SDS011;10764;50.850;2.904;2022-09-27T07:29:29;1270.10;;;999.90;;
21213;SDS011;10764;50.850;2.904;2022-09-27T07:31:59;1270.77;;;999.90;;
21213;SDS011;10764;50.850;2.904;2022-09-27T07:34:32;1276.60;;;999.90;;
21213;SDS011;10764;50.850;2.904;2022-09-27T07:37:01;1273.43;;;999.90;;
21213;SDS011;10764;50.850;2.904;2022-09-27T07:39:34;1269.40;;;999.90;;
21213;SDS011;10764;50.850;2.904;2022-09-27T07:42:02;1274.77;;;999.90;;
21213;SDS011;10764;50.850;2.904;2022-09-27T07:44:30;1272.50;;;999.90;;
21213;SDS011;10764;50.850;2.904;2022-09-27T07:47:26;1271.93;;;999.90;;
21213;SDS011;10764;50.850;2.904;2022-09-27T07:50:25;1270.60;;;999.90;;
21213;SDS011;10764;50.850;2.904;2022-09-27T07:53:14;1271.95;;;999.90;;
21213;SDS011;10764;50.850;2.904;2022-09-27T07:55:50;1270.43;;;999.90;;
21213;SDS011;10764;50.850;2.904;2022-09-27T07:58:22;1273.20;;;999.90;;
21213;SDS011;10764;50.850;2.904;2022-09-27T08:00:51;1277.65;;;999.90;;
21213;SDS011;10764;50.850;2.904;2022-09-27T08:03:20;1270.35;;;999.90;;
21213;SDS011;10764;50.850;2.904;2022-09-27T08:05:47;1274.53;;;999.90;;
21213;SDS011;10764;50.850;2.904;2022-09-27T08:08:14;1274.88;;;999.90;;
21213;SDS011;10764;50.850;2.904;2022-09-27T08:10:42;1273.32;;;999.90;;
21213;SDS011;10764;50.850;2.904;2022-09-27T08:13:12;1275.55;;;999.90;;
21213;SDS011;10764;50.850;2.904;2022-09-27T08:15:40;1275.22;;;999.90;;
21213;SDS011;10764;50.850;2.904;2022-09-27T08:18:08;1273.75;;;999.90;;
21213;SDS011;10764;50.850;2.904;2022-09-27T08:21:07;1278.03;;;999.90;;
21213;SDS011;10764;50.850;2.904;2022-09-27T08:23:42;1278.57;;;999.90;;
21213;SDS011;10764;50.850;2.904;2022-09-27T08:26:27;1274.13;;;999.90;;
21213;SDS011;10764;50.850;2.904;2022-09-27T08:29:00;1276.10;;;999.90;;
21213;SDS011;10764;50.850;2.904;2022-09-27T08:31:31;1272.97;;;999.90;;
21213;SDS011;10764;50.850;2.904;2022-09-27T08:33:58;1273.82;;;999.90;;
21213;SDS011;10764;50.850;2.904;2022-09-27T08:36:25;1279.60;;;999.90;;
21213;SDS011;10764;50.850;2.904;2022-09-27T08:38:52;1273.10;;;999.90;;
21213;SDS011;10764;50.850;2.904;2022-09-27T08:49:02;1278.50;;;999.90;;
21213;SDS011;10764;50.850;2.904;2022-09-27T08:51:35;1277.18;;;999.90;;
21213;SDS011;10764;50.850;2.904;2022-09-27T08:54:07;1279.07;;;999.90;;
21213;SDS011;10764;50.850;2.904;2022-09-27T08:56:44;1274.15;;;999.90;;
21213;SDS011;10764;50.850;2.904;2022-09-27T08:59:24;1273.07;;;999.90;;
21213;SDS011;10764;50.850;2.904;2022-09-27T09:01:56;1273.13;;;999.90;;
21213;SDS011;10764;50.850;2.904;2022-09-27T09:04:36;1272.72;;;999.90;;
21213;SDS011;10764;50.850;2.904;2022-09-27T09:27:01;1273.43;;;999.90;;
21213;SDS011;10764;50.850;2.904;2022-09-27T09:35:55;1276.05;;;999.90;;
21213;SDS011;10764;50.850;2.904;2022-09-27T09:38:48;1274.63;;;999.90;;
21213;SDS011;10764;50.850;2.904;2022-09-27T09:41:27;1277.53;;;999.90;;
21213;SDS011;10764;50.850;2.904;2022-09-27T09:44:09;1275.05;;;999.90;;
21213;SDS011;10764;50.850;2.904;2022-09-27T09:46:46;1272.00;;;999.90;;
21213;SDS011;10764;50.850;2.904;2022-09-27T09:49:17;1275.30;;;999.90;;
21213;SDS011;10764;50.850;2.904;2022-09-27T09:51:57;1278.50;;;999.90;;
21213;SDS011;10764;50.850;2.904;2022-09-27T09:54:36;1273.22;;;999.90;;
21213;SDS011;10764;50.850;2.904;2022-09-27T09:57:13;1277.80;;;999.90;;
21213;SDS011;10764;50.850;2.904;2022-09-27T09:59:51;1284.00;;;999.90;;
21213;SDS011;10764;50.850;2.904;2022-09-27T10:02:26;1272.90;;;999.90;;
21213;SDS011;10764;50.850;2.904;2022-09-27T10:05:15;1274.65;;;999.90;;
21213;SDS011;10764;50.850;2.904;2022-09-27T10:07:53;1278.63;;;999.90;;
21213;SDS011;10764;50.850;2.904;2022-09-27T10:10:23;1280.70;;;999.90;;
21213;SDS011;10764;50.850;2.904;2022-09-27T10:12:53;1282.10;;;999.90;;
21213;SDS011;10764;50.850;2.904;2022-09-27T10:15:27;1275.13;;;999.90;;
21213;SDS011;10764;50.850;2.904;2022-09-27T10:17:56;1281.15;;;999.90;;
21213;SDS011;10764;50.850;2.904;2022-09-27T10:23:19;1277.20;;;999.90;;
21213;SDS011;10764;50.850;2.904;2022-09-27T10:26:08;1275.33;;;999.90;;
21213;SDS011;10764;50.850;2.904;2022-09-27T10:28:40;1270.88;;;999.90;;
21213;SDS011;10764;50.850;2.904;2022-09-27T10:31:12;1276.22;;;999.90;;
21213;SDS011;10764;50.850;2.904;2022-09-27T10:34:05;1276.43;;;999.90;;
21213;SDS011;10764;50.850;2.904;2022-09-27T10:36:38;1275.70;;;999.90;;
21213;SDS011;10764;50.850;2.904;2022-09-27T10:39:05;1271.38;;;999.90;;
21213;SDS011;10764;50.850;2.904;2022-09-27T10:41:50;1274.15;;;999.90;;
21213;SDS011;10764;50.850;2.904;2022-09-27T10:44:39;1275.32;;;999.90;;
21213;SDS011;10764;50.850;2.904;2022-09-27T10:47:24;1277.22;;;999.90;;
21213;SDS011;10764;50.850;2.904;2022-09-27T10:50:10;1272.15;;;999.90;;
21213;SDS011;10764;50.850;2.904;2022-09-27T10:53:19;1276.53;;;999.90;;
21213;SDS011;10764;50.850;2.904;2022-09-27T10:55:56;1279.55;;;999.90;;
21213;SDS011;10764;50.850;2.904;2022-09-27T10:58:35;1276.18;;;999.90;;
21213;SDS011;10764;50.850;2.904;2022-09-27T11:01:08;1275.20;;;999.90;;
21213;SDS011;10764;50.850;2.904;2022-09-27T11:03:57;1277.27;;;999.90;;
21213;SDS011;10764;50.850;2.904;2022-09-27T11:06:30;1277.30;;;999.90;;
21213;SDS011;10764;50.850;2.904;2022-09-27T11:09:18;1284.18;;;999.90;;
21213;SDS011;10764;50.850;2.904;2022-09-27T11:12:09;1276.93;;;999.90;;
21213;SDS011;10764;50.850;2.904;2022-09-27T11:14:38;1279.20;;;999.90;;
21213;SDS011;10764;50.850;2.904;2022-09-27T11:19:55;1280.15;;;999.90;;
21213;SDS011;10764;50.850;2.904;2022-09-27T11:28:39;1280.28;;;999.90;;
21213;SDS011;10764;50.850;2.904;2022-09-27T11:31:40;1283.75;;;999.90;;
21213;SDS011;10764;50.850;2.904;2022-09-27T11:39:50;1280.78;;;999.90;;
21213;SDS011;10764;50.850;2.904;2022-09-27T11:42:49;1270.43;;;999.90;;
21213;SDS011;10764;50.850;2.904;2022-09-27T11:52:26;1276.72;;;999.90;;
21213;SDS011;10764;50.850;2.904;2022-09-27T11:57:57;1272.20;;;999.90;;
21213;SDS011;10764;50.850;2.904;2022-09-27T12:06:07;1276.90;;;999.90;;
21213;SDS011;10764;50.850;2.904;2022-09-27T12:11:22;1270.83;;;999.90;;
21213;SDS011;10764;50.850;2.904;2022-09-27T12:14:08;1273.07;;;999.90;;
21213;SDS011;10764;50.850;2.904;2022-09-27T12:16:52;1276.27;;;999.90;;
21213;SDS011;10764;50.850;2.904;2022-09-27T12:19:33;1277.35;;;999.90;;
21213;SDS011;10764;50.850;2.904;2022-09-27T12:22:14;1275.70;;;999.90;;
21213;SDS011;10764;50.850;2.904;2022-09-27T12:25:05;1277.53;;;999.90;;
21213;SDS011;10764;50.850;2.904;2022-09-27T12:28:00;1276.57;;;999.90;;
21213;SDS011;10764;50.850;2.904;2022-09-27T12:30:40;1275.82;;;999.90;;
21213;SDS011;10764;50.850;2.904;2022-09-27T12:35:51;1272.32;;;999.90;;
21213;SDS011;10764;50.850;2.904;2022-09-27T12:38:41;1276.28;;;999.90;;
21213;SDS011;10764;50.850;2.904;2022-09-27T12:41:13;1270.43;;;999.90;;
21213;SDS011;10764;50.850;2.904;2022-09-27T12:44:06;1268.57;;;999.90;;
21213;SDS011;10764;50.850;2.904;2022-09-27T12:46:57;1261.13;;;999.90;;
21213;SDS011;10764;50.850;2.904;2022-09-27T12:52:42;1243.95;;;999.90;;
21213;SDS011;10764;50.850;2.904;2022-09-27T13:00:25;1243.65;;;999.90;;
21213;SDS011;10764;50.850;2.904;2022-09-27T13:11:11;1251.93;;;999.90;;
21213;SDS011;10764;50.850;2.904;2022-09-27T13:13:53;1253.30;;;999.90;;
21213;SDS011;10764;50.850;2.904;2022-09-27T13:16:22;1261.22;;;999.90;;
21213;SDS011;10764;50.850;2.904;2022-09-27T13:32:34;1251.75;;;999.90;;
21213;SDS011;10764;50.850;2.904;2022-09-27T13:37:44;1251.68;;;999.90;;
21213;SDS011;10764;50.850;2.904;2022-09-27T13:40:26;1253.43;;;999.90;;
21213;SDS011;10764;50.850;2.904;2022-09-27T13:46:24;1246.13;;;999.90;;
21213;SDS011;10764;50.850;2.904;2022-09-27T13:51:55;1253.20;;;999.90;;
21213;SDS011;10764;50.850;2.904;2022-09-27T13:54:35;1252.72;;;999.90;;
21213;SDS011;10764;50.850;2.904;2022-09-27T13:57:36;1254.40;;;999.90;;
21213;SDS011;10764;50.850;2.904;2022-09-27T13:59:53;1250.30;;;999.90;;
21213;SDS011;10764;50.850;2.904;2022-09-27T14:05:51;1244.22;;;999.90;;
21213;SDS011;10764;50.850;2.904;2022-09-27T14:09:03;1249.60;;;999.90;;
21213;SDS011;10764;50.850;2.904;2022-09-27T14:11:20;1249.75;;;999.90;;
21213;SDS011;10764;50.850;2.904;2022-09-27T14:13:54;1255.30;;;999.90;;
21213;SDS011;10764;50.850;2.904;2022-09-27T14:16:23;1250.65;;;999.90;;
21213;SDS011;10764;50.850;2.904;2022-09-27T14:18:57;1248.72;;;999.90;;
21213;SDS011;10764;50.850;2.904;2022-09-27T14:21:34;1254.22;;;999.90;;
21213;SDS011;10764;50.850;2.904;2022-09-27T14:27:35;1242.37;;;999.90;;
21213;SDS011;10764;50.850;2.904;2022-09-27T14:29:47;1253.40;;;999.90;;
21213;SDS011;10764;50.850;2.904;2022-09-27T14:32:20;1249.50;;;999.90;;
21213;SDS011;10764;50.850;2.904;2022-09-27T14:35:18;1244.97;;;999.90;;
21213;SDS011;10764;50.850;2.904;2022-09-27T14:38:05;1245.32;;;999.90;;
21213;SDS011;10764;50.850;2.904;2022-09-27T14:40:57;1246.43;;;999.90;;
21213;SDS011;10764;50.850;2.904;2022-09-27T14:43:25;1248.03;;;999.90;;
21213;SDS011;10764;50.850;2.904;2022-09-27T14:45:56;1248.10;;;999.90;;
21213;SDS011;10764;50.850;2.904;2022-09-27T14:48:29;1246.45;;;999.90;;
21213;SDS011;10764;50.850;2.904;2022-09-27T14:53:44;1255.75;;;999.90;;
21213;SDS011;10764;50.850;2.904;2022-09-27T14:56:22;1253.27;;;999.90;;
21213;SDS011;10764;50.850;2.904;2022-09-27T14:59:32;1250.95;;;999.90;;
21213;SDS011;10764;50.850;2.904;2022-09-27T15:01:58;1253.63;;;999.90;;
21213;SDS011;10764;50.850;2.904;2022-09-27T15:04:27;1250.72;;;999.90;;
21213;SDS011;10764;50.850;2.904;2022-09-27T15:06:59;1254.28;;;999.90;;
21213;SDS011;10764;50.850;2.904;2022-09-27T15:09:26;1250.45;;;999.90;;
21213;SDS011;10764;50.850;2.904;2022-09-27T15:11:58;1252.40;;;999.90;;
21213;SDS011;10764;50.850;2.904;2022-09-27T15:14:26;1249.07;;;999.90;;
21213;SDS011;10764;50.850;2.904;2022-09-27T15:16:54;1257.40;;;999.90;;
21213;SDS011;10764;50.850;2.904;2022-09-27T15:19:27;1253.25;;;999.90;;
21213;SDS011;10764;50.850;2.904;2022-09-27T15:21:58;1255.22;;;999.90;;
21213;SDS011;10764;50.850;2.904;2022-09-27T15:25:06;1256.03;;;999.90;;
21213;SDS011;10764;50.850;2.904;2022-09-27T15:27:48;1258.68;;;999.90;;
21213;SDS011;10764;50.850;2.904;2022-09-27T15:30:17;1255.35;;;999.90;;
21213;SDS011;10764;50.850;2.904;2022-09-27T15:32:50;1262.47;;;999.90;;
21213;SDS011;10764;50.850;2.904;2022-09-27T15:35:21;1254.93;;;999.90;;
21213;SDS011;10764;50.850;2.904;2022-09-27T15:37:50;1257.97;;;999.90;;
21213;SDS011;10764;50.850;2.904;2022-09-27T15:42:56;1260.43;;;999.90;;
21213;SDS011;10764;50.850;2.904;2022-09-27T15:45:29;1254.05;;;999.90;;
21213;SDS011;10764;50.850;2.904;2022-09-27T15:48:04;1254.85;;;999.90;;
21213;SDS011;10764;50.850;2.904;2022-09-27T15:50:39;1254.18;;;999.90;;
21213;SDS011;10764;50.850;2.904;2022-09-27T15:53:07;1257.82;;;999.90;;
21213;SDS011;10764;50.850;2.904;2022-09-27T15:55:39;1260.80;;;999.90;;
21213;SDS011;10764;50.850;2.904;2022-09-27T15:58:13;1256.00;;;999.90;;
21213;SDS011;10764;50.850;2.904;2022-09-27T16:00:58;1254.40;;;999.90;;
21213;SDS011;10764;50.850;2.904;2022-09-27T16:03:28;1254.32;;;999.90;;
21213;SDS011;10764;50.850;2.904;2022-09-27T16:05:55;1255.45;;;999.90;;
21213;SDS011;10764;50.850;2.904;2022-09-27T16:08:23;1256.05;;;999.90;;
21213;SDS011;10764;50.850;2.904;2022-09-27T16:10:52;1250.00;;;999.90;;
21213;SDS011;10764;50.850;2.904;2022-09-27T16:13:24;1252.68;;;999.90;;
21213;SDS011;10764;50.850;2.904;2022-09-27T16:15:57;1249.07;;;999.90;;
21213;SDS011;10764;50.850;2.904;2022-09-27T16:18:26;1254.13;;;999.90;;
21213;SDS011;10764;50.850;2.904;2022-09-27T16:20:59;1250.47;;;999.90;;
21213;SDS011;10764;50.850;2.904;2022-09-27T16:23:26;1247.10;;;999.90;;
21213;SDS011;10764;50.850;2.904;2022-09-27T16:25:56;1247.05;;;999.90;;
21213;SDS011;10764;50.850;2.904;2022-09-27T16:28:24;1250.28;;;999.90;;
21213;SDS011;10764;50.850;2.904;2022-09-27T16:30:51;1246.93;;;999.90;;
21213;SDS011;10764;50.850;2.904;2022-09-27T16:33:20;1248.40;;;999.90;;
21213;SDS011;10764;50.850;2.904;2022-09-27T16:35:50;1252.25;;;999.90;;
21213;SDS011;10764;50.850;2.904;2022-09-27T16:38:18;1248.93;;;999.90;;
21213;SDS011;10764;50.850;2.904;2022-09-27T16:40:48;1249.03;;;999.90;;
21213;SDS011;10764;50.850;2.904;2022-09-27T16:43:16;1249.03;;;999.90;;
21213;SDS011;10764;50.850;2.904;2022-09-27T16:45:44;1247.93;;;999.90;;
21213;SDS011;10764;50.850;2.904;2022-09-27T16:48:11;1247.68;;;999.90;;
21213;SDS011;10764;50.850;2.904;2022-09-27T16:50:40;1251.00;;;999.90;;
21213;SDS011;10764;50.850;2.904;2022-09-27T16:53:25;1251.83;;;999.90;;
21213;SDS011;10764;50.850;2.904;2022-09-27T16:55:57;1249.95;;;999.90;;
21213;SDS011;10764;50.850;2.904;2022-09-27T16:58:27;1246.38;;;999.90;;
21213;SDS011;10764;50.850;2.904;2022-09-27T17:00:57;1240.22;;;999.90;;
21213;SDS011;10764;50.850;2.904;2022-09-27T17:03:26;1239.85;;;999.90;;
21213;SDS011;10764;50.850;2.904;2022-09-27T17:05:59;1246.22;;;999.90;;
21213;SDS011;10764;50.850;2.904;2022-09-27T17:08:26;1244.38;;;999.90;;
21213;SDS011;10764;50.850;2.904;2022-09-27T17:10:55;1237.63;;;999.90;;
21213;SDS011;10764;50.850;2.904;2022-09-27T17:13:23;1237.32;;;999.90;;
21213;SDS011;10764;50.850;2.904;2022-09-27T17:15:50;1244.75;;;999.90;;
21213;SDS011;10764;50.850;2.904;2022-09-27T17:18:19;1243.43;;;999.90;;
21213;SDS011;10764;50.850;2.904;2022-09-27T17:20:48;1243.10;;;999.90;;